SondeTracker

Meteorological Radiosondes Database

Operations

Sounding was ended - last measurement: 2022-12-07 14:17:53z

MAP
About Radiosonde

Number: D22037296 (22037296)

Launch Site: Alabaster [AL] (US)

Type: DFM17

AUX: NO

Frequency: 402.010 MHz

Max Speed: 206 km/h at 32488 m

Average Speed: 86.15 km/h

Max Altitude: 33282 m

Average Ascent Speed: 5.06 m/s

Average Descent Speed: 7.57 m/s

Status: UNKNOWN

Status Changes
Launch Site Type AUX Frequency Status Finder Landing Point Description Changes made by
APRS Statistics

Received Frames: 136

First Frame [UTC]: 2022-12-07 11:34:41z

Last Frame [UTC]: 2022-12-07 14:17:53z

Receivers: N4XWC-2

Flight Time: 02:43:12 h

Distance From First Measurement: 231.04 km

Nearest City: Thomaston [GA] (US) [3.43 km]

Nearest Hunter: wildfish [96.54 km]

Ground Altitude: 210 m

Distance from QTH: 0.00 km

APRS Data
Receiver Number Date/Time [UTC] φ λ Course [°] Speed [km/h] Altitude [m] Description
N4XWC-2D220372962022-12-07 14:17:5332.8605-84.3204103747401Clb=-6.8m/s t=-20.4C h=-1.0% p=-1.0hPa 402.010 MHz Type=DFM17 ser=22037296 Radiosonde
N4XWC-2D220372962022-12-07 14:16:5232.8618-84.3283101817624Clb=-6.4m/s t=-22.3C h=-1.0% p=-1.0hPa 402.010 MHz Type=DFM17 ser=22037296 Radiosonde
N4XWC-2D220372962022-12-07 14:15:5132.8643-84.3435103817988Clb=-4.0m/s t=-25.2C h=-1.0% p=-1.0hPa 402.010 MHz Type=DFM17 ser=22037296 Radiosonde
N4XWC-2D220372962022-12-07 14:14:5032.868-84.3611104858264Clb=-4.0m/s t=-27.5C h=-1.0% p=-1.0hPa 402.010 MHz Type=DFM17 ser=22037296 Radiosonde
N4XWC-2D220372962022-12-07 14:13:4932.8708-84.3741104838464Clb=-4.0m/s t=-29.3C h=-1.0% p=-1.0hPa 402.010 MHz Type=DFM17 ser=22037296 Radiosonde
N4XWC-2D220372962022-12-07 14:12:4832.8741-84.3884108808702Clb=-3.6m/s t=-31.2C h=-1.0% p=-1.0hPa 402.010 MHz Type=DFM17 ser=22037296 Radiosonde
N4XWC-2D220372962022-12-07 14:11:4732.8779-84.4012111788919Clb=-4.1m/s t=-32.9C h=-1.0% p=-1.0hPa 402.010 MHz Type=DFM17 ser=22037296 Radiosonde
N4XWC-2D220372962022-12-07 14:10:4532.8826-84.4147112819141Clb=-3.8m/s t=-34.7C h=-1.0% p=-1.0hPa 402.010 MHz Type=DFM17 ser=22037296 Radiosonde
N4XWC-2D220372962022-12-07 14:09:4532.8874-84.4281112809359Clb=-3.8m/s t=-36.3C h=-1.0% p=-1.0hPa 402.010 MHz Type=DFM17 ser=22037296 Radiosonde
N4XWC-2D220372962022-12-07 14:08:4432.8919-84.4418112819587Clb=-3.6m/s t=-37.1C h=-1.0% p=-1.0hPa 402.010 MHz Type=DFM17 ser=22037296 Radiosonde
N4XWC-2D220372962022-12-07 14:07:4232.8965-84.4552113789819Clb=-3.7m/s t=-38.9C h=-1.0% p=-1.0hPa 402.010 MHz Type=DFM17 ser=22037296 Radiosonde
N4XWC-2D220372962022-12-07 14:06:4132.9013-84.46941098510070Clb=-4.2m/s t=-40.5C h=-1.0% p=-1.0hPa 402.010 MHz Type=DFM17 ser=22037296 Radiosonde
N4XWC-2D220372962022-12-07 14:05:4032.9055-84.48381078710309Clb=-4.4m/s t=-42.4C h=-1.0% p=-1.0hPa 402.010 MHz Type=DFM17 ser=22037296 Radiosonde
N4XWC-2D220372962022-12-07 14:04:3932.9097-84.49931099110577Clb=-4.3m/s t=-44.6C h=-1.0% p=-1.0hPa 402.010 MHz Type=DFM17 ser=22037296 Radiosonde
N4XWC-2D220372962022-12-07 14:03:3832.9142-84.51451109410823Clb=-4.3m/s t=-46.6C h=-1.0% p=-1.0hPa 402.010 MHz Type=DFM17 ser=22037296 Radiosonde
N4XWC-2D220372962022-12-07 14:02:3732.9197-84.53091129811093Clb=-4.6m/s t=-49.0C h=-1.0% p=-1.0hPa 402.010 MHz Type=DFM17 ser=22037296 Radiosonde
N4XWC-2D220372962022-12-07 14:01:3832.9258-84.547911110011360Clb=-4.5m/s t=-51.3C h=-1.0% p=-1.0hPa 402.010 MHz Type=DFM17 ser=22037296 Radiosonde
N4XWC-2D220372962022-12-07 14:00:3532.9312-84.564711010011616Clb=-4.3m/s t=-53.6C h=-1.0% p=-1.0hPa 402.010 MHz Type=DFM17 ser=22037296 Radiosonde
N4XWC-2D220372962022-12-07 13:59:3432.9365-84.582110910011873Clb=-4.3m/s t=-55.8C h=-1.0% p=-1.0hPa 402.010 MHz Type=DFM17 ser=22037296 Radiosonde
N4XWC-2D220372962022-12-07 13:58:3332.9416-84.600310710712122Clb=-4.3m/s t=-57.0C h=-1.0% p=-1.0hPa 402.010 MHz Type=DFM17 ser=22037296 Radiosonde
N4XWC-2D220372962022-12-07 13:57:3232.9473-84.618911011112375Clb=-4.3m/s t=-58.9C h=-1.0% p=-1.0hPa 402.010 MHz Type=DFM17 ser=22037296 Radiosonde
N4XWC-2D220372962022-12-07 13:56:3132.9538-84.637711511312641Clb=-4.7m/s t=-60.8C h=-1.0% p=-1.0hPa 402.010 MHz Type=DFM17 ser=22037296 Radiosonde
N4XWC-2D220372962022-12-07 13:55:3032.9619-84.656811711712927Clb=-4.3m/s t=-62.7C h=-1.0% p=-1.0hPa 402.010 MHz Type=DFM17 ser=22037296 Radiosonde
N4XWC-2D220372962022-12-07 13:54:2932.9706-84.676311612413212Clb=-5.2m/s t=-64.1C h=-1.0% p=-1.0hPa 402.010 MHz Type=DFM17 ser=22037296 Radiosonde
N4XWC-2D220372962022-12-07 13:53:2832.9785-84.696611712013509Clb=-5.2m/s t=-65.6C h=-1.0% p=-1.0hPa 402.010 MHz Type=DFM17 ser=22037296 Radiosonde
N4XWC-2D220372962022-12-07 13:52:2732.9856-84.718311113113817Clb=-4.9m/s t=-67.1C h=-1.0% p=-1.0hPa 402.010 MHz Type=DFM17 ser=22037296 Radiosonde
N4XWC-2D220372962022-12-07 13:51:2632.9931-84.739811312614116Clb=-5.1m/s t=-69.1C h=-1.0% p=-1.0hPa 402.010 MHz Type=DFM17 ser=22037296 Radiosonde
N4XWC-2D220372962022-12-07 13:50:2433.0008-84.760811611914428Clb=-5.2m/s t=-67.5C h=-1.0% p=-1.0hPa 402.010 MHz Type=DFM17 ser=22037296 Radiosonde
N4XWC-2D220372962022-12-07 13:49:2333.0069-84.780211210914758Clb=-6.0m/s t=-65.3C h=-1.0% p=-1.0hPa 402.010 MHz Type=DFM17 ser=22037296 Radiosonde
N4XWC-2D220372962022-12-07 13:48:2233.0104-84.7974919115103Clb=-5.6m/s t=-65.3C h=-1.0% p=-1.0hPa 402.010 MHz Type=DFM17 ser=22037296 Radiosonde
N4XWC-2D220372962022-12-07 13:47:2133.0102-84.8147929615458Clb=-5.5m/s t=-67.7C h=-1.0% p=-1.0hPa 402.010 MHz Type=DFM17 ser=22037296 Radiosonde
N4XWC-2D220372962022-12-07 13:46:2033.0122-84.83210310215805Clb=-5.5m/s t=-68.8C h=-1.0% p=-1.0hPa 402.010 MHz Type=DFM17 ser=22037296 Radiosonde
N4XWC-2D220372962022-12-07 13:45:1933.0153-84.8491969816169Clb=-6.2m/s t=-67.8C h=-1.0% p=-1.0hPa 402.010 MHz Type=DFM17 ser=22037296 Radiosonde
N4XWC-2D220372962022-12-07 13:44:1833.017-84.86771029316559Clb=-6.1m/s t=-68.8C h=-1.0% p=-1.0hPa 402.010 MHz Type=DFM17 ser=22037296 Radiosonde
N4XWC-2D220372962022-12-07 13:43:1733.0214-84.88261088916951Clb=-6.4m/s t=-69.0C h=-1.0% p=-1.0hPa 402.010 MHz Type=DFM17 ser=22037296 Radiosonde
N4XWC-2D220372962022-12-07 13:42:1633.0253-84.89841069417353Clb=-6.7m/s t=-71.3C h=-1.0% p=-1.0hPa 402.010 MHz Type=DFM17 ser=22037296 Radiosonde
N4XWC-2D220372962022-12-07 13:41:1533.0299-84.91451088917791Clb=-7.2m/s t=-73.1C h=-1.0% p=-1.0hPa 402.010 MHz Type=DFM17 ser=22037296 Radiosonde
N4XWC-2D220372962022-12-07 13:40:1433.0325-84.9286988318227Clb=-7.5m/s t=-74.8C h=-1.0% p=-1.0hPa 402.010 MHz Type=DFM17 ser=22037296 Radiosonde
N4XWC-2D220372962022-12-07 13:39:1333.0356-84.94531128918694Clb=-7.8m/s t=-74.7C h=-1.0% p=-1.0hPa 402.010 MHz Type=DFM17 ser=22037296 Radiosonde
N4XWC-2D220372962022-12-07 13:38:1233.0403-84.95941088119163Clb=-7.7m/s t=-72.7C h=-1.0% p=-1.0hPa 402.010 MHz Type=DFM17 ser=22037296 Radiosonde
N4XWC-2D220372962022-12-07 13:37:1133.043-84.9694985219654Clb=-8.6m/s t=-70.5C h=-1.0% p=-1.0hPa 402.010 MHz Type=DFM17 ser=22037296 Radiosonde
N4XWC-2D220372962022-12-07 13:36:0933.0447-84.9776993320186Clb=-9.1m/s t=-66.8C h=-1.0% p=-1.0hPa 402.010 MHz Type=DFM17 ser=22037296 Radiosonde
N4XWC-2D220372962022-12-07 13:35:0833.0445-84.9812662420743Clb=-9.0m/s t=-66.9C h=-1.0% p=-1.0hPa 402.010 MHz Type=DFM17 ser=22037296 Radiosonde
N4XWC-2D220372962022-12-07 13:34:0733.0407-84.9887784421305Clb=-9.4m/s t=-66.7C h=-1.0% p=-1.0hPa 402.010 MHz Type=DFM17 ser=22037296 Radiosonde
N4XWC-2D220372962022-12-07 13:33:0633.0416-84.9955913921930Clb=-10.3m/s t=-61.6C h=-1.0% p=-1.0hPa 402.010 MHz Type=DFM17 ser=22037296 Radiosonde
N4XWC-2D220372962022-12-07 13:32:0533.0422-85.00011181722586Clb=-11.3m/s t=-62.2C h=-1.0% p=-1.0hPa 402.010 MHz Type=DFM17 ser=22037296 Radiosonde
N4XWC-2D220372962022-12-07 13:31:0433.0429-85.0021822623275Clb=-11.0m/s t=-61.4C h=-1.0% p=-1.0hPa 402.010 MHz Type=DFM17 ser=22037296 Radiosonde
N4XWC-2D220372962022-12-07 13:30:0333.0417-85.0087823323998Clb=-11.8m/s t=-59.9C h=-1.0% p=-1.0hPa 402.010 MHz Type=DFM17 ser=22037296 Radiosonde
N4XWC-2D220372962022-12-07 13:29:0233.0408-85.01691045024773Clb=-13.4m/s t=-56.7C h=-1.0% p=-1.0hPa 402.010 MHz Type=DFM17 ser=22037296 Radiosonde
N4XWC-2D220372962022-12-07 13:28:0133.0423-85.0263886525653Clb=-14.7m/s t=-56.1C h=-1.0% p=-1.0hPa 402.010 MHz Type=DFM17 ser=22037296 Radiosonde
N4XWC-2D220372962022-12-07 13:27:0033.0424-85.0402887026609Clb=-15.5m/s t=-51.1C h=-1.0% p=-1.0hPa 402.010 MHz Type=DFM17 ser=22037296 Radiosonde
N4XWC-2D220372962022-12-07 13:26:0733.0437-85.0542929127606Clb=-17.1m/s t=-49.1C h=-1.0% p=-1.0hPa 402.010 MHz Type=DFM17 ser=22037296 Radiosonde
N4XWC-2D220372962022-12-07 13:25:0033.0432-85.07289010628707Clb=-19.3m/s t=-49.2C h=-1.0% p=-1.0hPa 402.010 MHz Type=DFM17 ser=22037296 Radiosonde
N4XWC-2D220372962022-12-07 13:23:5833.0447-85.093810114129967Clb=-22.4m/s t=-44.2C h=-1.0% p=-1.0hPa 402.010 MHz Type=DFM17 ser=22037296 Radiosonde
N4XWC-2D220372962022-12-07 13:22:5833.0478-85.11868715031388Clb=-25.9m/s t=-38.3C h=-1.0% p=-1.0hPa 402.010 MHz Type=DFM17 ser=22037296 Radiosonde
N4XWC-2D220372962022-12-07 13:21:5633.0457-85.14957419633148Clb=-40.1m/s t=-35.3C h=-1.0% p=-1.0hPa 402.010 MHz Type=DFM17 ser=22037296 Radiosonde
N4XWC-2D220372962022-12-07 13:20:5533.0363-85.17968616333282Clb=1.6m/s t=-35.7C h=-1.0% p=-1.0hPa 402.010 MHz Type=DFM17 ser=22037296 Radiosonde
N4XWC-2D220372962022-12-07 13:19:5433.0307-85.21087618032867Clb=3.6m/s t=-35.6C h=-1.0% p=-1.0hPa 402.010 MHz Type=DFM17 ser=22037296 Radiosonde
N4XWC-2D220372962022-12-07 13:18:5433.0293-85.23877720632488Clb=3.5m/s t=-35.9C h=-1.0% p=-1.0hPa 402.010 MHz Type=DFM17 ser=22037296 Radiosonde
N4XWC-2D220372962022-12-07 13:17:5233.0271-85.27079919432088Clb=7.6m/s t=-36.2C h=-1.0% p=-1.0hPa 402.010 MHz Type=DFM17 ser=22037296 Radiosonde
N4XWC-2D220372962022-12-07 13:16:5133.0262-85.299310418531722Clb=8.3m/s t=-38.0C h=-1.0% p=-1.0hPa 402.010 MHz Type=DFM17 ser=22037296 Radiosonde
N4XWC-2D220372962022-12-07 13:15:4933.025-85.32659216931277Clb=3.7m/s t=-40.0C h=-1.0% p=-1.0hPa 402.010 MHz Type=DFM17 ser=22037296 Radiosonde
N4XWC-2D220372962022-12-07 13:14:4833.0256-85.34988010930863Clb=6.9m/s t=-41.6C h=-1.0% p=-1.0hPa 402.010 MHz Type=DFM17 ser=22037296 Radiosonde
N4XWC-2D220372962022-12-07 13:13:5233.0289-85.37510916330514Clb=8.5m/s t=-44.2C h=-1.0% p=-1.0hPa 402.010 MHz Type=DFM17 ser=22037296 Radiosonde
N4XWC-2D220372962022-12-07 13:13:5033.035-85.40359615030136Clb=8.1m/s t=-45.0C h=-1.0% p=-1.0hPa 402.010 MHz Type=DFM17 ser=22037296 Radiosonde
N4XWC-2D220372962022-12-07 13:13:2233.0373-85.42549015029791Clb=2.0m/s t=-46.6C h=-1.0% p=-1.0hPa 402.010 MHz Type=DFM17 ser=22037296 Radiosonde
N4XWC-2D220372962022-12-07 13:12:3733.0388-85.44729513329370Clb=8.9m/s t=-47.5C h=-1.0% p=-1.0hPa 402.010 MHz Type=DFM17 ser=22037296 Radiosonde
N4XWC-2D220372962022-12-07 13:11:4533.0395-85.46738712028938Clb=3.4m/s t=-48.1C h=-1.0% p=-1.0hPa 402.010 MHz Type=DFM17 ser=22037296 Radiosonde
N4XWC-2D220372962022-12-07 13:10:5033.0406-85.4859413928561Clb=9.2m/s t=-48.8C h=-1.0% p=-1.0hPa 402.010 MHz Type=DFM17 ser=22037296 Radiosonde
N4XWC-2D220372962022-12-07 13:09:5033.041-85.50498713328170Clb=3.5m/s t=-48.1C h=-1.0% p=-1.0hPa 402.010 MHz Type=DFM17 ser=22037296 Radiosonde
N4XWC-2D220372962022-12-07 13:08:4333.04-85.52468211527776Clb=6.2m/s t=-49.2C h=-1.0% p=-1.0hPa 402.010 MHz Type=DFM17 ser=22037296 Radiosonde
N4XWC-2D220372962022-12-07 13:07:4033.0399-85.5424868027430Clb=6.0m/s t=-50.7C h=-1.0% p=-1.0hPa 402.010 MHz Type=DFM17 ser=22037296 Radiosonde
N4XWC-2D220372962022-12-07 13:06:2233.0413-85.55731066127083Clb=3.7m/s t=-50.5C h=-1.0% p=-1.0hPa 402.010 MHz Type=DFM17 ser=22037296 Radiosonde
N4XWC-2D220372962022-12-07 13:04:5933.0446-85.572810010226712Clb=2.9m/s t=-51.7C h=-1.0% p=-1.0hPa 402.010 MHz Type=DFM17 ser=22037296 Radiosonde
N4XWC-2D220372962022-12-07 13:03:4733.0462-85.58821018026332Clb=10.1m/s t=-54.1C h=-1.0% p=-1.0hPa 402.010 MHz Type=DFM17 ser=22037296 Radiosonde
N4XWC-2D220372962022-12-07 13:02:2633.0464-85.6027788925924Clb=2.8m/s t=-55.6C h=-1.0% p=-1.0hPa 402.010 MHz Type=DFM17 ser=22037296 Radiosonde
N4XWC-2D220372962022-12-07 13:00:5833.045-85.6137875225606Clb=9.2m/s t=-57.4C h=-1.0% p=-1.0hPa 402.010 MHz Type=DFM17 ser=22037296 Radiosonde
N4XWC-2D220372962022-12-07 12:59:3333.0449-85.62161035225280Clb=5.8m/s t=-57.9C h=-1.0% p=-1.0hPa 402.010 MHz Type=DFM17 ser=22037296 Radiosonde
N4XWC-2D220372962022-12-07 12:58:3333.0479-85.63191203924941Clb=5.6m/s t=-57.5C h=-1.0% p=-1.0hPa 402.010 MHz Type=DFM17 ser=22037296 Radiosonde
N4XWC-2D220372962022-12-07 12:57:5933.0448-85.6561714323823Clb=4.3m/s t=-60.0C h=-1.0% p=-1.0hPa 402.010 MHz Type=DFM17 ser=22037296 Radiosonde
N4XWC-2D220372962022-12-07 12:57:5533.0431-85.6616453023506Clb=5.9m/s t=-59.0C h=-1.0% p=-1.0hPa 402.010 MHz Type=DFM17 ser=22037296 Radiosonde
N4XWC-2D220372962022-12-07 12:57:5133.0419-85.6686884423160Clb=7.2m/s t=-60.1C h=-1.0% p=-1.0hPa 402.010 MHz Type=DFM17 ser=22037296 Radiosonde
N4XWC-2D220372962022-12-07 12:57:4733.043-85.67361082422740Clb=7.1m/s t=-60.6C h=-1.0% p=-1.0hPa 402.010 MHz Type=DFM17 ser=22037296 Radiosonde
N4XWC-2D220372962022-12-07 12:57:4333.0443-85.6765721722479Clb=5.3m/s t=-62.0C h=-1.0% p=-1.0hPa 402.010 MHz Type=DFM17 ser=22037296 Radiosonde
N4XWC-2D220372962022-12-07 12:56:1433.0448-85.6824753522167Clb=5.3m/s t=-63.6C h=-1.0% p=-1.0hPa 402.010 MHz Type=DFM17 ser=22037296 Radiosonde
N4XWC-2D220372962022-12-07 12:54:3233.0457-85.6906792821863Clb=4.2m/s t=-273.0C h=-1.0% p=-1.0hPa 402.010 MHz Type=DFM17 ser=22037296 Radiosonde
N4XWC-2D220372962022-12-07 12:52:4733.047-85.6976753021542Clb=1.2m/s t=-64.8C h=-1.0% p=-1.0hPa 402.010 MHz Type=DFM17 ser=22037296 Radiosonde
N4XWC-2D220372962022-12-07 12:50:4633.0452-85.7049524321220Clb=5.3m/s t=-273.0C h=-1.0% p=-1.0hPa 402.010 MHz Type=DFM17 ser=22037296 Radiosonde
N4XWC-2D220372962022-12-07 12:48:5433.0419-85.7101373120901Clb=5.4m/s t=-67.1C h=-1.0% p=-1.0hPa 402.010 MHz Type=DFM17 ser=22037296 Radiosonde
N4XWC-2D220372962022-12-07 12:46:5433.0401-85.7138355720590Clb=4.8m/s t=-65.8C h=-1.0% p=-1.0hPa 402.010 MHz Type=DFM17 ser=22037296 Radiosonde
N4XWC-2D220372962022-12-07 12:44:5933.0391-85.7165611720280Clb=5.0m/s t=-64.8C h=-1.0% p=-1.0hPa 402.010 MHz Type=DFM17 ser=22037296 Radiosonde
N4XWC-2D220372962022-12-07 12:43:2533.0403-85.7237925019961Clb=5.0m/s t=-67.9C h=-1.0% p=-1.0hPa 402.010 MHz Type=DFM17 ser=22037296 Radiosonde
N4XWC-2D220372962022-12-07 12:42:1733.0417-85.7331085219671Clb=5.4m/s t=-70.5C h=-1.0% p=-1.0hPa 402.010 MHz Type=DFM17 ser=22037296 Radiosonde
N4XWC-2D220372962022-12-07 12:41:1333.044-85.74161164419402Clb=5.3m/s t=-70.2C h=-1.0% p=-1.0hPa 402.010 MHz Type=DFM17 ser=22037296 Radiosonde
N4XWC-2D220372962022-12-07 12:40:5333.0723-85.9018948916538Clb=3.7m/s t=-69.3C h=-1.0% p=-1.0hPa 402.010 MHz Type=DFM17 ser=22037296 Radiosonde
N4XWC-2D220372962022-12-07 12:38:2933.0724-85.92148810416245Clb=5.6m/s t=-68.5C h=-1.0% p=-1.0hPa 402.010 MHz Type=DFM17 ser=22037296 Radiosonde
N4XWC-2D220372962022-12-07 12:36:0733.0737-85.9391008015969Clb=3.5m/s t=-67.8C h=-1.0% p=-1.0hPa 402.010 MHz Type=DFM17 ser=22037296 Radiosonde
N4XWC-2D220372962022-12-07 12:33:4033.0767-85.956710010215721Clb=4.2m/s t=-68.9C h=-1.0% p=-1.0hPa 402.010 MHz Type=DFM17 ser=22037296 Radiosonde
N4XWC-2D220372962022-12-07 12:31:1733.0783-85.97489010615450Clb=3.9m/s t=-67.7C h=-1.0% p=-1.0hPa 402.010 MHz Type=DFM17 ser=22037296 Radiosonde
N4XWC-2D220372962022-12-07 12:28:4733.079-85.9929999415167Clb=4.1m/s t=-66.5C h=-1.0% p=-1.0hPa 402.010 MHz Type=DFM17 ser=22037296 Radiosonde
N4XWC-2D220372962022-12-07 12:26:1333.0829-86.011111010714911Clb=3.4m/s t=-66.5C h=-1.0% p=-1.0hPa 402.010 MHz Type=DFM17 ser=22037296 Radiosonde
N4XWC-2D220372962022-12-07 12:23:5533.0885-86.03210313014661Clb=3.6m/s t=-68.1C h=-1.0% p=-1.0hPa 402.010 MHz Type=DFM17 ser=22037296 Radiosonde
N4XWC-2D220372962022-12-07 12:22:5333.0946-86.052511112814405Clb=4.5m/s t=-69.1C h=-1.0% p=-1.0hPa 402.010 MHz Type=DFM17 ser=22037296 Radiosonde
N4XWC-2D220372962022-12-07 12:20:1233.1581-86.282510110711350Clb=3.7m/s t=-51.5C h=-1.0% p=-1.0hPa 402.010 MHz Type=DFM17 ser=22037296 Radiosonde
N4XWC-2D220372962022-12-07 12:17:5633.1625-86.301210910411101Clb=3.2m/s t=-49.4C h=-1.0% p=-1.0hPa 402.010 MHz Type=DFM17 ser=22037296 Radiosonde
N4XWC-2D220372962022-12-07 12:16:0133.1668-86.319610110610856Clb=3.2m/s t=-47.3C h=-1.0% p=-1.0hPa 402.010 MHz Type=DFM17 ser=22037296 Radiosonde
N4XWC-2D220372962022-12-07 12:14:0833.1705-86.337710210410624Clb=3.9m/s t=-45.3C h=-1.0% p=-1.0hPa 402.010 MHz Type=DFM17 ser=22037296 Radiosonde
N4XWC-2D220372962022-12-07 12:11:5433.174-86.35551038910383Clb=4.2m/s t=-43.4C h=-1.0% p=-1.0hPa 402.010 MHz Type=DFM17 ser=22037296 Radiosonde
N4XWC-2D220372962022-12-07 12:09:3633.1769-86.37111028510161Clb=2.9m/s t=-41.6C h=-1.0% p=-1.0hPa 402.010 MHz Type=DFM17 ser=22037296 Radiosonde
N4XWC-2D220372962022-12-07 12:07:2033.1805-86.387108949928Clb=4.3m/s t=-40.1C h=-1.0% p=-1.0hPa 402.010 MHz Type=DFM17 ser=22037296 Radiosonde
N4XWC-2D220372962022-12-07 12:05:1133.184-86.4042103949671Clb=3.4m/s t=-38.3C h=-1.0% p=-1.0hPa 402.010 MHz Type=DFM17 ser=22037296 Radiosonde
N4XWC-2D220372962022-12-07 12:03:4333.187-86.4193101919450Clb=4.2m/s t=-37.0C h=-1.0% p=-1.0hPa 402.010 MHz Type=DFM17 ser=22037296 Radiosonde
N4XWC-2D220372962022-12-07 12:02:5133.195-86.4692101968732Clb=3.4m/s t=-32.1C h=-1.0% p=-1.0hPa 402.010 MHz Type=DFM17 ser=22037296 Radiosonde
N4XWC-2D220372962022-12-07 12:02:0433.1962-86.4848921008501Clb=4.0m/s t=-30.0C h=-1.0% p=-1.0hPa 402.010 MHz Type=DFM17 ser=22037296 Radiosonde
N4XWC-2D220372962022-12-07 12:01:5433.1977-86.5025891008255Clb=3.7m/s t=-27.9C h=-1.0% p=-1.0hPa 402.010 MHz Type=DFM17 ser=22037296 Radiosonde
N4XWC-2D220372962022-12-07 12:01:4733.1983-86.518998818012Clb=3.8m/s t=-26.3C h=-1.0% p=-1.0hPa 402.010 MHz Type=DFM17 ser=22037296 Radiosonde
N4XWC-2D220372962022-12-07 12:01:0333.1985-86.533689837776Clb=3.6m/s t=-24.2C h=-1.0% p=-1.0hPa 402.010 MHz Type=DFM17 ser=22037296 Radiosonde
N4XWC-2D220372962022-12-07 11:58:5633.1985-86.54887727524Clb=3.6m/s t=-22.5C h=-1.0% p=-1.0hPa 402.010 MHz Type=DFM17 ser=22037296 Radiosonde
N4XWC-2D220372962022-12-07 11:56:3933.1986-86.561891657272Clb=4.0m/s t=-20.3C h=-1.0% p=-1.0hPa 402.010 MHz Type=DFM17 ser=22037296 Radiosonde
N4XWC-2D220372962022-12-07 11:54:4233.1988-86.575394747002Clb=5.2m/s t=-18.2C h=-1.0% p=-1.0hPa 402.010 MHz Type=DFM17 ser=22037296 Radiosonde
N4XWC-2D220372962022-12-07 11:52:4333.1974-86.587677746746Clb=4.7m/s t=-16.2C h=-1.0% p=-1.0hPa 402.010 MHz Type=DFM17 ser=22037296 Radiosonde
N4XWC-2D220372962022-12-07 11:51:2233.1952-86.599372696489Clb=3.6m/s t=-14.1C h=-1.0% p=-1.0hPa 402.010 MHz Type=DFM17 ser=22037296 Radiosonde
N4XWC-2D220372962022-12-07 11:51:1633.1993-86.645199565461Clb=5.0m/s t=-9.2C h=-1.0% p=-1.0hPa 402.010 MHz Type=DFM17 ser=22037296 Radiosonde
N4XWC-2D220372962022-12-07 11:51:1233.2004-86.656100785125Clb=4.7m/s t=-7.4C h=-1.0% p=-1.0hPa 402.010 MHz Type=DFM17 ser=22037296 Radiosonde
N4XWC-2D220372962022-12-07 11:49:4633.201-86.667387704778Clb=5.6m/s t=-5.3C h=-1.0% p=-1.0hPa 402.010 MHz Type=DFM17 ser=22037296 Radiosonde
N4XWC-2D220372962022-12-07 11:47:5633.2013-86.678875784438Clb=4.2m/s t=-3.7C h=-1.0% p=-1.0hPa 402.010 MHz Type=DFM17 ser=22037296 Radiosonde
N4XWC-2D220372962022-12-07 11:45:5733.2011-86.691588804129Clb=3.1m/s t=-1.5C h=-1.0% p=-1.0hPa 402.010 MHz Type=DFM17 ser=22037296 Radiosonde
N4XWC-2D220372962022-12-07 11:44:0333.1996-86.702687483770Clb=6.4m/s t=1.6C h=-1.0% p=-1.0hPa 402.010 MHz Type=DFM17 ser=22037296 Radiosonde
N4XWC-2D220372962022-12-07 11:43:4733.1974-86.712684573428Clb=3.1m/s t=4.3C h=-1.0% p=-1.0hPa 402.010 MHz Type=DFM17 ser=22037296 Radiosonde
N4XWC-2D220372962022-12-07 11:42:5633.1956-86.721766433096Clb=5.4m/s t=6.8C h=-1.0% p=-1.0hPa 402.010 MHz Type=DFM17 ser=22037296 Radiosonde
N4XWC-2D220372962022-12-07 11:41:3333.1948-86.730366432762Clb=6.1m/s t=9.4C h=-1.0% p=-1.0hPa 402.010 MHz Type=DFM17 ser=22037296 Radiosonde
N4XWC-2D220372962022-12-07 11:39:5633.1935-86.7382104282431Clb=6.0m/s t=10.3C h=-1.0% p=-1.0hPa 402.010 MHz Type=DFM17 ser=22037296 Radiosonde
N4XWC-2D220372962022-12-07 11:38:1033.1928-86.744783242075Clb=5.8m/s t=9.1C h=-1.0% p=-1.0hPa 402.010 MHz Type=DFM17 ser=22037296 Radiosonde
N4XWC-2D220372962022-12-07 11:36:0633.1915-86.751463561711Clb=4.8m/s t=11.6C h=-1.0% p=-1.0hPa 402.010 MHz Type=DFM17 ser=22037296 Radiosonde
N4XWC-2D220372962022-12-07 11:35:0433.1892-86.758876561349Clb=5.4m/s t=13.6C h=-1.0% p=-1.0hPa 402.010 MHz Type=DFM17 ser=22037296 Radiosonde
N4XWC-2D220372962022-12-07 11:34:4133.1872-86.767780571009Clb=6.5m/s t=15.6C h=-1.0% p=-1.0hPa 402.010 MHz Type=DFM17 ser=22037296 Radiosonde